createdAt,value
2018-05-12T00:00:59.700Z,20.10
2018-05-12T00:03:27.381Z,20.00
2018-05-12T00:05:55.137Z,20.10
2018-05-12T00:08:22.853Z,20.20
2018-05-12T00:10:50.520Z,20.10
2018-05-12T00:13:18.377Z,20.20
2018-05-12T00:15:46.153Z,20.20
2018-05-12T00:18:13.852Z,20.20
2018-05-12T00:20:41.536Z,20.10
2018-05-12T00:23:09.308Z,20.00
2018-05-12T00:25:37.051Z,19.90
2018-05-12T00:28:04.827Z,19.90
2018-05-12T00:30:32.473Z,19.90
2018-05-12T00:33:00.152Z,19.90
2018-05-12T00:35:27.797Z,19.90
2018-05-12T00:37:55.574Z,19.90
2018-05-12T00:40:23.974Z,19.80
2018-05-12T00:42:52.474Z,19.50
2018-05-12T00:45:20.929Z,19.50
2018-05-12T00:47:48.684Z,19.40
2018-05-12T00:50:16.455Z,19.60
2018-05-12T00:52:44.333Z,19.50
2018-05-12T00:55:12.110Z,19.40
2018-05-12T00:57:39.759Z,19.50
2018-05-12T01:00:07.766Z,19.30
2018-05-12T01:02:35.585Z,19.10
2018-05-12T01:05:03.418Z,19.10
2018-05-12T01:07:31.091Z,19.20
2018-05-12T01:09:58.870Z,19.30
2018-05-12T01:12:26.570Z,19.20
2018-05-12T01:14:54.341Z,19.30
2018-05-12T01:17:22.095Z,19.30
2018-05-12T01:19:49.765Z,19.40
2018-05-12T01:22:17.465Z,19.40
2018-05-12T01:24:45.219Z,19.20
2018-05-12T01:27:13.003Z,19.20
2018-05-12T01:29:40.877Z,19.20
2018-05-12T01:32:08.578Z,19.20
2018-05-12T01:34:37.142Z,19.20
2018-05-12T01:37:05.021Z,19.10
2018-05-12T01:39:32.797Z,19.00
2018-05-12T01:42:00.573Z,19.10
2018-05-12T01:44:28.273Z,19.10
2018-05-12T01:46:55.937Z,19.10
2018-05-12T01:49:23.629Z,19.00
2018-05-12T01:51:51.473Z,19.00
2018-05-12T01:54:19.250Z,18.90
2018-05-12T01:56:46.957Z,18.90
2018-05-12T01:59:14.706Z,18.90
2018-05-12T02:01:42.400Z,19.00
2018-05-12T02:04:10.078Z,18.90
2018-05-12T02:06:37.823Z,18.90
2018-05-12T02:09:05.599Z,18.80
2018-05-12T02:11:33.303Z,18.80
2018-05-12T02:14:01.049Z,18.80
2018-05-12T02:16:29.021Z,18.70
2018-05-12T02:18:56.807Z,18.70
2018-05-12T02:21:24.583Z,18.50
2018-05-12T02:23:52.280Z,18.50
2018-05-12T02:26:19.959Z,18.60
2018-05-12T02:28:47.613Z,18.70
2018-05-12T02:31:15.382Z,18.70
2018-05-12T02:33:43.077Z,18.70
2018-05-12T02:36:10.757Z,18.70
2018-05-12T02:38:38.678Z,18.50
2018-05-12T02:41:06.333Z,18.20
2018-05-12T02:43:34.797Z,18.30
2018-05-12T02:46:02.446Z,18.30
2018-05-12T02:48:30.114Z,18.50
2018-05-12T02:50:57.898Z,18.50
2018-05-12T02:53:25.680Z,18.60
2018-05-12T02:55:53.348Z,18.60
2018-05-12T02:58:21.046Z,18.60
2018-05-12T03:00:48.799Z,18.50
2018-05-12T03:03:16.680Z,18.40
2018-05-12T03:05:44.327Z,18.50
2018-05-12T03:08:12.133Z,18.40
2018-05-12T03:10:39.806Z,18.40
2018-05-12T03:13:07.447Z,18.40
2018-05-12T03:15:35.254Z,18.40
2018-05-12T03:18:03.026Z,18.40
2018-05-12T03:20:30.721Z,18.40
2018-05-12T03:22:58.378Z,18.40
2018-05-12T03:25:26.150Z,18.40
2018-05-12T03:27:53.854Z,18.40
2018-05-12T03:30:21.704Z,18.30
2018-05-12T03:32:49.414Z,18.30
2018-05-12T03:35:17.256Z,18.30
2018-05-12T03:37:44.931Z,18.30
2018-05-12T03:40:12.706Z,18.30
2018-05-12T03:42:40.484Z,18.30
2018-05-12T03:45:08.359Z,18.30
2018-05-12T03:47:36.057Z,18.30
2018-05-12T03:50:03.833Z,18.20
2018-05-12T03:52:31.489Z,18.20
2018-05-12T03:54:59.259Z,18.20
2018-05-12T03:57:26.888Z,18.20
2018-05-12T03:59:55.358Z,18.30
2018-05-12T04:02:23.233Z,18.20
2018-05-12T04:05:02.961Z,18.30
2018-05-12T04:07:42.618Z,18.30
2018-05-12T04:10:22.274Z,18.40
2018-05-12T04:12:49.972Z,18.30
2018-05-12T04:15:17.757Z,18.30
2018-05-12T04:17:45.421Z,18.30
2018-05-12T04:20:13.175Z,18.30
2018-05-12T04:22:40.832Z,18.30
2018-05-12T04:25:08.541Z,18.50
2018-05-12T04:27:36.193Z,18.60
2018-05-12T04:30:03.975Z,18.50
2018-05-12T04:32:31.751Z,18.60
2018-05-12T04:34:59.523Z,18.70
2018-05-12T04:37:27.216Z,18.70
2018-05-12T04:39:54.898Z,18.70
2018-05-12T04:42:22.616Z,18.60
2018-05-12T04:44:51.061Z,19.00
2018-05-12T04:47:18.815Z,19.00
2018-05-12T04:49:46.513Z,19.30
2018-05-12T04:52:14.368Z,19.60
2018-05-12T04:54:42.043Z,19.50
2018-05-12T04:57:09.840Z,19.40
2018-05-12T04:59:37.592Z,19.50
2018-05-12T05:02:05.368Z,20.30
2018-05-12T05:04:33.074Z,21.00
2018-05-12T05:07:00.840Z,21.10
2018-05-12T05:09:28.595Z,21.00
2018-05-12T05:11:56.269Z,21.40
2018-05-12T05:14:23.977Z,21.60
2018-05-12T05:16:51.740Z,21.00
2018-05-12T05:19:20.218Z,20.30
2018-05-12T05:21:47.892Z,20.30
2018-05-12T05:24:15.590Z,20.70
2018-05-12T05:26:43.346Z,20.80
2018-05-12T05:29:11.042Z,21.00
2018-05-12T05:31:38.795Z,20.90
2018-05-12T05:34:06.566Z,20.60
2018-05-12T05:36:34.347Z,20.70
2018-05-12T05:39:02.120Z,21.40
2018-05-12T05:41:29.793Z,21.90
2018-05-12T05:43:57.570Z,20.90
2018-05-12T05:46:25.345Z,20.70
2018-05-12T05:48:53.123Z,20.30
2018-05-12T05:51:20.824Z,21.30
2018-05-12T05:53:48.597Z,21.70
2018-05-12T05:56:16.352Z,21.60
2018-05-12T05:58:43.986Z,21.80
2018-05-12T06:01:12.544Z,20.70
2018-05-12T06:03:40.224Z,20.60
2018-05-12T06:06:08.067Z,20.70
2018-05-12T06:08:35.844Z,21.40
2018-05-12T06:11:03.622Z,21.10
2018-05-12T06:13:31.294Z,22.00
2018-05-12T06:15:59.071Z,23.00
2018-05-12T06:18:26.745Z,23.60
2018-05-12T06:20:54.522Z,23.50
2018-05-12T06:23:22.168Z,22.10
2018-05-12T06:25:49.892Z,21.00
2018-05-12T06:28:17.646Z,22.10
2018-05-12T06:30:45.321Z,23.10
2018-05-12T06:33:13.099Z,21.50
2018-05-12T06:35:40.773Z,22.80
2018-05-12T06:38:08.465Z,23.80
2018-05-12T06:40:36.321Z,23.80
2018-05-12T06:43:04.021Z,23.90
2018-05-12T06:45:31.800Z,22.00
2018-05-12T06:47:59.547Z,23.00
2018-05-12T06:50:27.247Z,22.20
2018-05-12T06:52:55.077Z,23.30
2018-05-12T06:55:23.522Z,23.80
2018-05-12T06:57:51.372Z,23.80
2018-05-12T07:00:19.068Z,24.00
2018-05-12T07:02:46.925Z,23.90
2018-05-12T07:05:14.599Z,23.30
2018-05-12T07:07:42.302Z,22.20
2018-05-12T07:10:09.976Z,22.90
2018-05-12T07:12:37.927Z,23.30
2018-05-12T07:15:05.633Z,24.40
2018-05-12T07:17:33.481Z,24.90
2018-05-12T07:20:01.256Z,24.30
2018-05-12T07:22:29.052Z,25.20
2018-05-12T07:24:56.694Z,25.40
2018-05-12T07:27:24.401Z,25.50
2018-05-12T07:29:52.032Z,25.50
2018-05-12T07:32:19.829Z,24.20
2018-05-12T07:34:47.469Z,25.10
2018-05-12T07:37:15.282Z,25.90
2018-05-12T07:39:42.955Z,25.20
2018-05-12T07:42:10.731Z,24.50
2018-05-12T07:44:38.607Z,23.50
2018-05-12T07:47:06.309Z,24.30
2018-05-12T07:49:34.161Z,24.10
2018-05-12T07:52:01.861Z,23.90
2018-05-12T07:54:29.632Z,25.10
2018-05-12T07:56:57.447Z,25.10
2018-05-12T07:59:25.185Z,25.30
2018-05-12T08:01:52.940Z,25.90
2018-05-12T08:04:20.611Z,26.60
2018-05-12T08:06:48.312Z,26.20
2018-05-12T08:09:16.068Z,24.90
2018-05-12T08:11:43.843Z,24.70
2018-05-12T08:14:11.653Z,24.40
2018-05-12T08:16:39.402Z,25.40
2018-05-12T08:19:07.297Z,26.50
2018-05-12T08:21:35.150Z,26.90
2018-05-12T08:24:03.030Z,26.80
2018-05-12T08:26:30.808Z,27.00
2018-05-12T08:28:58.513Z,26.60
2018-05-12T08:31:26.360Z,26.40
2018-05-12T08:33:54.052Z,26.10
2018-05-12T08:36:21.833Z,26.40
2018-05-12T08:38:49.586Z,25.70
2018-05-12T08:41:17.362Z,24.10
2018-05-12T08:43:45.063Z,25.20
2018-05-12T08:46:12.858Z,25.60
2018-05-12T08:48:40.617Z,26.70
2018-05-12T08:51:08.390Z,26.70
2018-05-12T08:53:36.140Z,26.90
2018-05-12T08:56:03.916Z,26.40
2018-05-12T08:58:31.613Z,27.70
2018-05-12T09:00:59.393Z,26.50
2018-05-12T09:03:27.144Z,26.70
2018-05-12T09:05:55.022Z,26.40
2018-05-12T09:08:22.798Z,26.80
2018-05-12T09:10:50.472Z,27.70
2018-05-12T09:13:18.357Z,26.90
2018-05-12T09:15:46.054Z,26.60
2018-05-12T09:18:13.753Z,27.20
2018-05-12T09:20:42.222Z,24.90
2018-05-12T09:23:10.089Z,24.90
2018-05-12T09:25:37.809Z,25.70
2018-05-12T09:28:05.624Z,26.50
2018-05-12T09:30:33.321Z,26.10
2018-05-12T09:33:01.102Z,25.00
2018-05-12T09:35:28.877Z,25.30
2018-05-12T09:37:56.631Z,26.30
2018-05-12T09:40:24.303Z,26.80
2018-05-12T09:42:52.001Z,26.10
2018-05-12T09:45:19.777Z,26.00
2018-05-12T09:47:47.530Z,25.80
2018-05-12T09:50:15.306Z,25.40
2018-05-12T09:52:43.086Z,25.10
2018-05-12T09:55:10.781Z,25.70
2018-05-12T09:57:38.788Z,25.10
2018-05-12T10:00:07.357Z,24.40
2018-05-12T10:02:35.107Z,24.40
2018-05-12T10:05:02.885Z,24.90
2018-05-12T10:07:30.671Z,24.80
2018-05-12T10:09:58.460Z,25.00
2018-05-12T10:12:26.132Z,25.20
2018-05-12T10:14:53.887Z,24.90
2018-05-12T10:17:21.665Z,25.80
2018-05-12T10:19:49.364Z,24.40
2018-05-12T10:22:17.218Z,25.40
2018-05-12T10:24:44.872Z,25.70
2018-05-12T10:27:12.671Z,24.90
2018-05-12T10:29:40.444Z,25.20
2018-05-12T10:32:08.150Z,25.20
2018-05-12T10:34:35.892Z,26.20
2018-05-12T10:37:03.668Z,25.20
2018-05-12T10:39:31.309Z,25.80
2018-05-12T10:41:59.940Z,26.50
2018-05-12T10:44:27.720Z,26.40
2018-05-12T10:46:55.502Z,25.90
2018-05-12T10:49:24.024Z,26.10
2018-05-12T10:51:51.762Z,26.00
2018-05-12T10:54:19.543Z,26.50
2018-05-12T10:56:47.233Z,26.60
2018-05-12T10:59:14.911Z,26.90
2018-05-12T11:01:42.768Z,26.40
2018-05-12T11:04:10.541Z,26.20
2018-05-12T11:06:38.315Z,26.50
2018-05-12T11:09:06.091Z,25.40
2018-05-12T11:11:33.869Z,26.30
2018-05-12T11:14:01.647Z,25.80
2018-05-12T11:16:29.420Z,25.70
2018-05-12T11:18:57.130Z,25.10
2018-05-12T11:21:24.797Z,25.30
2018-05-12T11:23:52.582Z,25.60
2018-05-12T11:26:20.327Z,25.90
2018-05-12T11:28:48.103Z,26.20
2018-05-12T11:31:15.777Z,26.10
2018-05-12T11:33:43.480Z,26.30
2018-05-12T11:36:11.231Z,25.80
2018-05-12T11:38:39.067Z,26.20
2018-05-12T11:41:06.705Z,25.70
2018-05-12T11:43:34.485Z,26.30
2018-05-12T11:46:02.117Z,25.90
2018-05-12T11:48:29.825Z,25.80
2018-05-12T11:50:57.579Z,25.90
2018-05-12T11:53:25.249Z,26.30
2018-05-12T11:55:52.960Z,26.80
2018-05-12T11:58:20.741Z,27.10
2018-05-12T12:00:48.401Z,26.50
2018-05-12T12:03:16.176Z,25.80
2018-05-12T12:05:43.836Z,25.90
2018-05-12T12:08:11.530Z,26.70
2018-05-12T12:10:39.470Z,27.30
2018-05-12T12:13:07.257Z,27.30
2018-05-12T12:15:34.932Z,26.50
2018-05-12T12:18:02.708Z,26.40
2018-05-12T12:20:30.587Z,26.70
2018-05-12T12:22:58.224Z,26.10
2018-05-12T12:25:26.754Z,25.60
2018-05-12T12:27:54.564Z,25.60
2018-05-12T12:30:22.334Z,26.60
2018-05-12T12:32:50.005Z,25.40
2018-05-12T12:35:17.681Z,25.60
2018-05-12T12:37:45.431Z,24.80
2018-05-12T12:40:13.208Z,25.90
2018-05-12T12:42:40.910Z,26.30
2018-05-12T12:45:08.645Z,26.60
2018-05-12T12:47:36.435Z,27.20
2018-05-12T12:50:04.237Z,26.80
2018-05-12T12:52:31.909Z,26.10
2018-05-12T12:54:59.555Z,26.70
2018-05-12T12:57:27.232Z,27.00
2018-05-12T12:59:54.930Z,26.90
2018-05-12T13:02:22.713Z,25.90
2018-05-12T13:04:50.541Z,25.70
2018-05-12T13:07:18.339Z,26.00
2018-05-12T13:09:45.970Z,26.20
2018-05-12T13:12:14.430Z,25.90
2018-05-12T13:14:42.210Z,25.90
2018-05-12T13:17:09.894Z,26.40
2018-05-12T13:19:37.537Z,26.70
2018-05-12T13:22:05.321Z,26.70
2018-05-12T13:24:33.015Z,27.20
2018-05-12T13:27:00.855Z,27.00
2018-05-12T13:29:28.564Z,27.50
2018-05-12T13:31:56.341Z,26.60
2018-05-12T13:34:23.993Z,26.90
2018-05-12T13:36:51.676Z,26.60
2018-05-12T13:39:19.333Z,25.80
2018-05-12T13:41:47.105Z,26.50
2018-05-12T13:44:14.881Z,26.90
2018-05-12T13:46:42.657Z,27.40
2018-05-12T13:49:10.547Z,27.30
2018-05-12T13:51:38.210Z,27.40
2018-05-12T13:54:06.009Z,27.80
2018-05-12T13:56:33.680Z,28.00
2018-05-12T13:59:01.354Z,26.80
2018-05-12T14:01:29.211Z,26.40
2018-05-12T14:03:56.991Z,26.40
2018-05-12T14:06:24.684Z,26.90
2018-05-12T14:08:52.461Z,27.10
2018-05-12T14:11:20.215Z,27.30
2018-05-12T14:13:47.885Z,27.00
2018-05-12T14:16:15.564Z,27.70
2018-05-12T14:18:43.342Z,26.30
2018-05-12T14:21:11.040Z,26.20
2018-05-12T14:23:38.790Z,26.50
2018-05-12T14:26:06.569Z,27.20
2018-05-12T14:28:34.340Z,27.90
2018-05-12T14:31:02.118Z,27.60
2018-05-12T14:33:29.896Z,27.90
2018-05-12T14:35:57.595Z,28.00
2018-05-12T14:38:25.368Z,27.00
2018-05-12T14:40:53.012Z,27.50
2018-05-12T14:43:20.656Z,26.70
2018-05-12T14:45:49.289Z,26.50
2018-05-12T14:48:16.948Z,26.50
2018-05-12T14:50:44.743Z,27.40
2018-05-12T14:53:12.437Z,26.80
2018-05-12T14:55:40.933Z,26.50
2018-05-12T14:58:08.605Z,28.20
2018-05-12T15:00:36.460Z,28.20
2018-05-12T15:03:04.238Z,28.30
2018-05-12T15:05:32.018Z,27.80
2018-05-12T15:07:59.665Z,27.90
2018-05-12T15:10:27.401Z,27.50
2018-05-12T15:12:55.062Z,28.00
2018-05-12T15:15:22.838Z,28.60
2018-05-12T15:17:50.590Z,28.50
2018-05-12T15:20:18.299Z,27.80
2018-05-12T15:22:45.928Z,28.00
2018-05-12T15:25:13.712Z,27.20
2018-05-12T15:27:41.488Z,27.30
2018-05-12T15:30:09.264Z,27.30
2018-05-12T15:32:36.961Z,27.60
2018-05-12T15:35:04.831Z,27.30
2018-05-12T15:37:32.501Z,27.40
2018-05-12T15:40:00.304Z,27.40
2018-05-12T15:42:28.083Z,27.70
2018-05-12T15:44:55.860Z,27.70
2018-05-12T15:47:23.612Z,27.30
2018-05-12T15:49:51.473Z,27.50
2018-05-12T15:52:19.164Z,27.90
2018-05-12T15:54:46.939Z,27.80
2018-05-12T15:57:14.786Z,27.60
2018-05-12T15:59:42.721Z,27.70
2018-05-12T16:02:10.399Z,27.40
2018-05-12T16:04:38.169Z,28.10
2018-05-12T16:07:05.922Z,28.30
2018-05-12T16:09:33.626Z,27.10
2018-05-12T16:12:01.476Z,27.20
2018-05-12T16:14:29.251Z,27.90
2018-05-12T16:16:56.957Z,27.80
2018-05-12T16:19:24.893Z,27.50
2018-05-12T16:21:52.685Z,26.70
2018-05-12T16:24:20.385Z,26.90
2018-05-12T16:26:48.242Z,27.60
2018-05-12T16:29:15.912Z,27.20
2018-05-12T16:31:43.901Z,27.30
2018-05-12T16:34:11.599Z,27.80
2018-05-12T16:36:40.298Z,28.20
2018-05-12T16:39:08.062Z,28.20
2018-05-12T16:41:35.741Z,27.60
2018-05-12T16:44:03.592Z,27.20
2018-05-12T16:46:31.273Z,27.40
2018-05-12T16:48:58.945Z,28.00
2018-05-12T16:51:26.616Z,27.60
2018-05-12T16:53:54.319Z,27.40
2018-05-12T16:56:22.170Z,27.20
2018-05-12T16:58:49.864Z,27.70
2018-05-12T17:01:17.537Z,28.10
2018-05-12T17:03:45.297Z,28.10
2018-05-12T17:06:13.106Z,28.10
2018-05-12T17:08:40.977Z,27.40
2018-05-12T17:11:08.643Z,27.80
2018-05-12T17:13:36.320Z,27.40
2018-05-12T17:16:04.105Z,27.50
2018-05-12T17:18:31.764Z,27.80
2018-05-12T17:20:59.620Z,27.60
2018-05-12T17:23:27.333Z,27.70
2018-05-12T17:25:55.278Z,27.00
2018-05-12T17:28:23.364Z,27.10
2018-05-12T17:30:51.165Z,26.70
2018-05-12T17:33:18.915Z,26.10
2018-05-12T17:35:46.692Z,26.00
2018-05-12T17:38:14.475Z,26.60
2018-05-12T17:40:42.277Z,27.00
2018-05-12T17:43:10.144Z,27.00
2018-05-12T17:45:37.999Z,26.60
2018-05-12T17:48:05.775Z,26.50
2018-05-12T17:50:33.497Z,25.90
2018-05-12T17:53:01.432Z,25.80
2018-05-12T17:55:29.207Z,25.60
2018-05-12T17:57:56.882Z,25.80
2018-05-12T18:00:24.589Z,25.70
2018-05-12T18:02:52.434Z,24.50
2018-05-12T18:05:20.210Z,24.00
2018-05-12T18:07:47.896Z,24.50
2018-05-12T18:10:15.662Z,24.50
2018-05-12T18:12:43.364Z,24.90
2018-05-12T18:15:11.215Z,25.30
2018-05-12T18:17:38.916Z,24.70
2018-05-12T18:20:08.089Z,24.80
2018-05-12T18:22:35.874Z,24.80
2018-05-12T18:25:03.586Z,24.60
2018-05-12T18:27:31.287Z,25.00
2018-05-12T18:29:59.742Z,25.40
2018-05-12T18:32:28.237Z,25.40
2018-05-12T18:34:55.987Z,25.40
2018-05-12T18:37:23.682Z,25.40
2018-05-12T18:39:51.526Z,25.00
2018-05-12T18:42:19.356Z,24.90
2018-05-12T18:44:47.769Z,24.70
2018-05-12T18:47:16.180Z,24.60
2018-05-12T18:49:43.983Z,24.50
2018-05-12T18:52:11.762Z,24.70
2018-05-12T18:54:39.564Z,23.90
2018-05-12T18:57:07.237Z,23.90
2018-05-12T18:59:35.085Z,23.80
2018-05-12T19:02:02.788Z,23.70
2018-05-12T19:04:30.565Z,23.70
2018-05-12T19:06:58.248Z,23.40
2018-05-12T19:09:26.136Z,23.20
2018-05-12T19:11:53.866Z,23.60
2018-05-12T19:14:21.782Z,22.90
2018-05-12T19:16:49.545Z,22.50
2018-05-12T19:19:17.402Z,22.90
2018-05-12T19:21:45.383Z,23.10
2018-05-12T19:24:13.078Z,22.70
2018-05-12T19:26:40.741Z,22.40
2018-05-12T19:29:08.505Z,22.20
2018-05-12T19:31:36.205Z,21.80
2018-05-12T19:34:03.981Z,21.70
2018-05-12T19:36:31.658Z,22.30
2018-05-12T19:38:59.311Z,22.40
2018-05-12T19:41:27.008Z,22.10
2018-05-12T19:43:54.677Z,21.90
2018-05-12T19:46:22.428Z,21.60
2018-05-12T19:48:50.104Z,21.30
2018-05-12T19:51:17.983Z,21.80
2018-05-12T19:53:45.691Z,21.80
2018-05-12T19:56:13.538Z,21.80
2018-05-12T19:58:41.232Z,22.40
2018-05-12T20:01:08.912Z,22.60
2018-05-12T20:03:36.660Z,22.90
2018-05-12T20:06:04.460Z,23.00
2018-05-12T20:08:32.211Z,22.70
2018-05-12T20:10:59.991Z,23.10
2018-05-12T20:13:27.641Z,22.60
2018-05-12T20:15:55.377Z,22.90
2018-05-12T20:18:23.825Z,22.70
2018-05-12T20:20:51.516Z,22.60
2018-05-12T20:23:19.157Z,22.70
2018-05-12T20:25:46.989Z,22.90
2018-05-12T20:28:14.648Z,22.60
2018-05-12T20:30:42.405Z,22.60
2018-05-12T20:33:10.112Z,22.80
2018-05-12T20:35:37.880Z,22.90
2018-05-12T20:38:05.662Z,22.30
2018-05-12T20:40:33.407Z,22.50
2018-05-12T20:43:01.101Z,22.80
2018-05-12T20:45:28.881Z,21.60
2018-05-12T20:47:58.068Z,21.50
2018-05-12T20:50:25.737Z,21.50
2018-05-12T20:52:53.522Z,21.80
2018-05-12T20:55:21.190Z,21.90
2018-05-12T20:57:48.967Z,22.40
2018-05-12T21:00:16.742Z,22.20
2018-05-12T21:02:44.724Z,21.40
2018-05-12T21:05:12.364Z,21.90
2018-05-12T21:07:40.028Z,21.90
2018-05-12T21:10:08.482Z,21.20
2018-05-12T21:12:36.339Z,21.20
2018-05-12T21:15:04.017Z,21.20
2018-05-12T21:17:31.995Z,21.70
2018-05-12T21:19:59.696Z,21.90
2018-05-12T21:22:27.447Z,21.30
2018-05-12T21:24:55.152Z,21.70
2018-05-12T21:27:22.785Z,21.10
2018-05-12T21:29:50.574Z,21.50
2018-05-12T21:32:18.245Z,21.60
2018-05-12T21:34:46.119Z,20.80
2018-05-12T21:37:13.891Z,20.50
2018-05-12T21:39:41.770Z,21.10
2018-05-12T21:42:09.551Z,20.90
2018-05-12T21:44:37.428Z,20.90
2018-05-12T21:47:05.203Z,21.00
2018-05-12T21:49:32.897Z,21.50
2018-05-12T21:52:00.529Z,21.00
2018-05-12T21:54:28.328Z,21.20
2018-05-12T21:56:56.102Z,21.40
2018-05-12T21:59:23.801Z,21.40
2018-05-12T22:01:51.432Z,20.40
2018-05-12T22:04:19.157Z,20.70
2018-05-12T22:06:47.007Z,20.20
2018-05-12T22:09:14.783Z,20.40
2018-05-12T22:11:42.626Z,21.00
2018-05-12T22:14:10.357Z,21.50
2018-05-12T22:16:38.128Z,21.70
2018-05-12T22:19:05.774Z,21.30
2018-05-12T22:21:33.558Z,21.70
2018-05-12T22:24:01.344Z,21.90
2018-05-12T22:26:29.033Z,22.10
2018-05-12T22:28:56.704Z,22.00
2018-05-12T22:31:24.563Z,22.10
2018-05-12T22:33:52.261Z,22.00
2018-05-12T22:36:20.013Z,21.70
2018-05-12T22:38:47.721Z,21.70
2018-05-12T22:41:15.597Z,21.50
2018-05-12T22:43:43.454Z,21.50
2018-05-12T22:46:11.344Z,21.90
2018-05-12T22:48:38.954Z,21.50
2018-05-12T22:51:07.591Z,20.90
2018-05-12T22:53:35.225Z,20.90
2018-05-12T22:56:03.785Z,21.10
2018-05-12T22:58:31.473Z,21.10
2018-05-12T23:00:59.240Z,21.20
2018-05-12T23:03:27.086Z,20.80
2018-05-12T23:05:54.797Z,21.10
2018-05-12T23:08:22.560Z,21.40
2018-05-12T23:10:50.247Z,21.40
2018-05-12T23:13:18.020Z,21.50
2018-05-12T23:15:45.689Z,21.70
2018-05-12T23:18:13.543Z,21.70
2018-05-12T23:20:41.214Z,21.60
2018-05-12T23:23:08.884Z,21.60
2018-05-12T23:25:36.662Z,21.70
2018-05-12T23:28:04.439Z,21.40
2018-05-12T23:30:32.114Z,21.50
2018-05-12T23:32:59.892Z,21.60
2018-05-12T23:35:27.666Z,21.60
2018-05-12T23:37:55.465Z,21.60
2018-05-12T23:40:23.219Z,21.20
2018-05-12T23:42:50.995Z,21.10
2018-05-12T23:45:18.772Z,21.10
2018-05-12T23:47:46.446Z,21.20
2018-05-12T23:50:14.328Z,21.30
2018-05-12T23:52:42.104Z,21.50
2018-05-12T23:55:09.878Z,21.30
2018-05-12T23:57:37.655Z,21.00
